sensor_id;sensor_type;location;lat;lon;timestamp;P1;durP1;ratioP1;P2;durP2;ratioP2
24259;SDS011;12384;48.112;18.418;2022-12-07T00:01:37;18.33;;;16.83;;
24259;SDS011;12384;48.112;18.418;2022-12-07T00:04:07;18.17;;;16.57;;
24259;SDS011;12384;48.112;18.418;2022-12-07T00:06:40;18.37;;;16.83;;
24259;SDS011;12384;48.112;18.418;2022-12-07T00:09:11;18.23;;;16.73;;
24259;SDS011;12384;48.112;18.418;2022-12-07T00:11:40;19.77;;;17.97;;
24259;SDS011;12384;48.112;18.418;2022-12-07T00:14:10;18.47;;;16.87;;
24259;SDS011;12384;48.112;18.418;2022-12-07T00:16:40;19.00;;;17.40;;
24259;SDS011;12384;48.112;18.418;2022-12-07T00:19:09;19.80;;;17.87;;
24259;SDS011;12384;48.112;18.418;2022-12-07T00:21:40;18.53;;;16.93;;
24259;SDS011;12384;48.112;18.418;2022-12-07T00:24:10;18.43;;;16.90;;
24259;SDS011;12384;48.112;18.418;2022-12-07T00:26:39;18.43;;;16.93;;
24259;SDS011;12384;48.112;18.418;2022-12-07T00:29:11;16.97;;;15.60;;
24259;SDS011;12384;48.112;18.418;2022-12-07T00:31:43;19.17;;;17.50;;
24259;SDS011;12384;48.112;18.418;2022-12-07T00:34:12;18.07;;;16.57;;
24259;SDS011;12384;48.112;18.418;2022-12-07T00:36:44;16.77;;;15.37;;
24259;SDS011;12384;48.112;18.418;2022-12-07T00:39:12;17.80;;;16.37;;
24259;SDS011;12384;48.112;18.418;2022-12-07T00:41:41;18.00;;;16.50;;
24259;SDS011;12384;48.112;18.418;2022-12-07T00:44:09;18.37;;;16.87;;
24259;SDS011;12384;48.112;18.418;2022-12-07T00:46:38;17.57;;;16.07;;
24259;SDS011;12384;48.112;18.418;2022-12-07T00:49:06;18.43;;;16.83;;
24259;SDS011;12384;48.112;18.418;2022-12-07T00:51:35;17.90;;;16.30;;
24259;SDS011;12384;48.112;18.418;2022-12-07T00:54:05;18.53;;;16.83;;
24259;SDS011;12384;48.112;18.418;2022-12-07T00:56:33;18.50;;;16.90;;
24259;SDS011;12384;48.112;18.418;2022-12-07T00:59:02;19.07;;;17.47;;
24259;SDS011;12384;48.112;18.418;2022-12-07T01:01:32;18.90;;;17.30;;
24259;SDS011;12384;48.112;18.418;2022-12-07T01:04:04;18.43;;;16.93;;
24259;SDS011;12384;48.112;18.418;2022-12-07T01:06:33;17.97;;;16.47;;
24259;SDS011;12384;48.112;18.418;2022-12-07T01:09:02;18.37;;;16.83;;
24259;SDS011;12384;48.112;18.418;2022-12-07T01:11:32;17.77;;;16.27;;
24259;SDS011;12384;48.112;18.418;2022-12-07T01:14:01;17.73;;;16.23;;
24259;SDS011;12384;48.112;18.418;2022-12-07T01:16:30;18.37;;;16.83;;
24259;SDS011;12384;48.112;18.418;2022-12-07T01:19:00;17.93;;;16.43;;
24259;SDS011;12384;48.112;18.418;2022-12-07T01:21:32;18.80;;;17.20;;
24259;SDS011;12384;48.112;18.418;2022-12-07T01:24:07;18.50;;;16.97;;
24259;SDS011;12384;48.112;18.418;2022-12-07T01:26:38;17.50;;;16.10;;
24259;SDS011;12384;48.112;18.418;2022-12-07T01:29:07;18.43;;;16.83;;
24259;SDS011;12384;48.112;18.418;2022-12-07T01:31:36;17.43;;;16.03;;
24259;SDS011;12384;48.112;18.418;2022-12-07T01:34:04;18.50;;;16.90;;
24259;SDS011;12384;48.112;18.418;2022-12-07T01:36:33;18.13;;;16.63;;
24259;SDS011;12384;48.112;18.418;2022-12-07T01:39:04;18.83;;;17.33;;
24259;SDS011;12384;48.112;18.418;2022-12-07T01:41:36;19.77;;;18.03;;
24259;SDS011;12384;48.112;18.418;2022-12-07T01:44:08;18.30;;;16.70;;
24259;SDS011;12384;48.112;18.418;2022-12-07T01:46:49;17.37;;;15.97;;
24259;SDS011;12384;48.112;18.418;2022-12-07T01:49:21;17.30;;;15.97;;
24259;SDS011;12384;48.112;18.418;2022-12-07T01:51:55;17.77;;;16.27;;
24259;SDS011;12384;48.112;18.418;2022-12-07T01:54:30;17.50;;;16.10;;
24259;SDS011;12384;48.112;18.418;2022-12-07T01:57:00;17.27;;;15.77;;
24259;SDS011;12384;48.112;18.418;2022-12-07T01:59:30;16.87;;;15.57;;
24259;SDS011;12384;48.112;18.418;2022-12-07T02:01:58;17.67;;;16.17;;
24259;SDS011;12384;48.112;18.418;2022-12-07T02:04:29;17.00;;;15.70;;
24259;SDS011;12384;48.112;18.418;2022-12-07T02:06:58;16.20;;;14.90;;
24259;SDS011;12384;48.112;18.418;2022-12-07T02:09:27;15.80;;;14.50;;
24259;SDS011;12384;48.112;18.418;2022-12-07T02:11:57;15.93;;;14.73;;
24259;SDS011;12384;48.112;18.418;2022-12-07T02:14:25;16.67;;;15.37;;
24259;SDS011;12384;48.112;18.418;2022-12-07T02:16:58;20.43;;;18.63;;
24259;SDS011;12384;48.112;18.418;2022-12-07T02:29:12;16.07;;;14.87;;
24259;SDS011;12384;48.112;18.418;2022-12-07T02:31:46;15.50;;;14.30;;
24259;SDS011;12384;48.112;18.418;2022-12-07T02:34:22;17.07;;;15.77;;
24259;SDS011;12384;48.112;18.418;2022-12-07T02:37:00;17.07;;;15.63;;
24259;SDS011;12384;48.112;18.418;2022-12-07T02:39:39;16.47;;;15.10;;
24259;SDS011;12384;48.112;18.418;2022-12-07T02:42:13;16.83;;;15.53;;
24259;SDS011;12384;48.112;18.418;2022-12-07T02:44:45;20.27;;;18.57;;
24259;SDS011;12384;48.112;18.418;2022-12-07T02:47:16;17.20;;;15.80;;
24259;SDS011;12384;48.112;18.418;2022-12-07T02:49:47;18.20;;;16.70;;
24259;SDS011;12384;48.112;18.418;2022-12-07T02:52:17;21.30;;;19.30;;
24259;SDS011;12384;48.112;18.418;2022-12-07T02:54:45;21.63;;;19.73;;
24259;SDS011;12384;48.112;18.418;2022-12-07T02:57:18;20.67;;;18.83;;
24259;SDS011;12384;48.112;18.418;2022-12-07T03:00:03;19.47;;;17.80;;
24259;SDS011;12384;48.112;18.418;2022-12-07T03:02:38;20.00;;;18.40;;
24259;SDS011;12384;48.112;18.418;2022-12-07T03:05:22;20.83;;;19.03;;
24259;SDS011;12384;48.112;18.418;2022-12-07T03:08:00;19.53;;;17.83;;
24259;SDS011;12384;48.112;18.418;2022-12-07T03:10:38;18.70;;;17.17;;
24259;SDS011;12384;48.112;18.418;2022-12-07T03:13:12;20.77;;;18.97;;
24259;SDS011;12384;48.112;18.418;2022-12-07T03:15:49;20.73;;;19.00;;
24259;SDS011;12384;48.112;18.418;2022-12-07T03:18:24;18.30;;;16.87;;
24259;SDS011;12384;48.112;18.418;2022-12-07T03:20:55;19.87;;;18.13;;
24259;SDS011;12384;48.112;18.418;2022-12-07T03:23:28;19.83;;;18.23;;
24259;SDS011;12384;48.112;18.418;2022-12-07T03:26:01;20.77;;;18.93;;
24259;SDS011;12384;48.112;18.418;2022-12-07T03:28:33;22.47;;;20.43;;
24259;SDS011;12384;48.112;18.418;2022-12-07T03:31:08;22.07;;;19.87;;
24259;SDS011;12384;48.112;18.418;2022-12-07T03:33:42;21.73;;;19.77;;
24259;SDS011;12384;48.112;18.418;2022-12-07T03:36:19;21.20;;;19.30;;
24259;SDS011;12384;48.112;18.418;2022-12-07T03:38:55;22.27;;;20.17;;
24259;SDS011;12384;48.112;18.418;2022-12-07T03:41:30;23.30;;;21.10;;
24259;SDS011;12384;48.112;18.418;2022-12-07T03:44:10;20.80;;;18.93;;
24259;SDS011;12384;48.112;18.418;2022-12-07T03:46:43;21.90;;;19.90;;
24259;SDS011;12384;48.112;18.418;2022-12-07T03:49:18;22.17;;;20.23;;
24259;SDS011;12384;48.112;18.418;2022-12-07T03:51:52;21.93;;;19.97;;
24259;SDS011;12384;48.112;18.418;2022-12-07T03:54:24;20.03;;;18.33;;
24259;SDS011;12384;48.112;18.418;2022-12-07T03:56:57;21.47;;;19.40;;
24259;SDS011;12384;48.112;18.418;2022-12-07T03:59:27;21.43;;;19.43;;
24259;SDS011;12384;48.112;18.418;2022-12-07T04:02:05;20.73;;;18.93;;
24259;SDS011;12384;48.112;18.418;2022-12-07T04:04:35;21.10;;;19.30;;
24259;SDS011;12384;48.112;18.418;2022-12-07T04:07:04;18.23;;;16.70;;
24259;SDS011;12384;48.112;18.418;2022-12-07T04:09:32;19.93;;;18.03;;
24259;SDS011;12384;48.112;18.418;2022-12-07T04:12:01;19.70;;;17.87;;
24259;SDS011;12384;48.112;18.418;2022-12-07T04:14:29;18.47;;;16.87;;
24259;SDS011;12384;48.112;18.418;2022-12-07T04:16:59;17.80;;;16.37;;
24259;SDS011;12384;48.112;18.418;2022-12-07T04:19:28;19.07;;;17.37;;
24259;SDS011;12384;48.112;18.418;2022-12-07T04:21:59;18.63;;;17.03;;
24259;SDS011;12384;48.112;18.418;2022-12-07T04:24:28;19.27;;;17.33;;
24259;SDS011;12384;48.112;18.418;2022-12-07T04:26:57;18.67;;;17.07;;
24259;SDS011;12384;48.112;18.418;2022-12-07T04:29:26;19.07;;;17.37;;
24259;SDS011;12384;48.112;18.418;2022-12-07T04:31:55;18.83;;;17.13;;
24259;SDS011;12384;48.112;18.418;2022-12-07T04:34:24;20.03;;;18.23;;
24259;SDS011;12384;48.112;18.418;2022-12-07T04:36:53;16.53;;;15.10;;
24259;SDS011;12384;48.112;18.418;2022-12-07T04:39:22;18.33;;;16.63;;
24259;SDS011;12384;48.112;18.418;2022-12-07T04:41:52;16.90;;;15.50;;
24259;SDS011;12384;48.112;18.418;2022-12-07T04:44:21;16.87;;;15.40;;
24259;SDS011;12384;48.112;18.418;2022-12-07T04:46:51;19.10;;;17.40;;
24259;SDS011;12384;48.112;18.418;2022-12-07T04:49:20;19.97;;;18.17;;
24259;SDS011;12384;48.112;18.418;2022-12-07T04:51:50;19.13;;;17.37;;
24259;SDS011;12384;48.112;18.418;2022-12-07T04:54:19;19.63;;;17.90;;
24259;SDS011;12384;48.112;18.418;2022-12-07T04:56:48;17.87;;;16.27;;
24259;SDS011;12384;48.112;18.418;2022-12-07T04:59:16;17.30;;;15.80;;
24259;SDS011;12384;48.112;18.418;2022-12-07T05:01:45;18.60;;;17.00;;
24259;SDS011;12384;48.112;18.418;2022-12-07T05:04:14;17.63;;;16.03;;
24259;SDS011;12384;48.112;18.418;2022-12-07T05:06:44;18.47;;;16.87;;
24259;SDS011;12384;48.112;18.418;2022-12-07T05:09:14;17.67;;;16.17;;
24259;SDS011;12384;48.112;18.418;2022-12-07T05:11:42;17.87;;;16.20;;
24259;SDS011;12384;48.112;18.418;2022-12-07T05:14:12;18.73;;;17.03;;
24259;SDS011;12384;48.112;18.418;2022-12-07T05:16:43;19.57;;;17.87;;
24259;SDS011;12384;48.112;18.418;2022-12-07T05:19:13;19.67;;;17.77;;
24259;SDS011;12384;48.112;18.418;2022-12-07T05:21:41;18.50;;;16.70;;
24259;SDS011;12384;48.112;18.418;2022-12-07T05:24:11;20.80;;;18.90;;
24259;SDS011;12384;48.112;18.418;2022-12-07T05:26:42;19.33;;;17.53;;
24259;SDS011;12384;48.112;18.418;2022-12-07T05:29:10;20.50;;;18.63;;
24259;SDS011;12384;48.112;18.418;2022-12-07T05:31:40;19.07;;;17.27;;
24259;SDS011;12384;48.112;18.418;2022-12-07T05:34:09;20.10;;;18.20;;
24259;SDS011;12384;48.112;18.418;2022-12-07T05:36:38;18.90;;;17.20;;
24259;SDS011;12384;48.112;18.418;2022-12-07T05:39:06;19.97;;;18.07;;
24259;SDS011;12384;48.112;18.418;2022-12-07T05:41:35;19.40;;;17.60;;
24259;SDS011;12384;48.112;18.418;2022-12-07T05:44:23;20.13;;;18.33;;
24259;SDS011;12384;48.112;18.418;2022-12-07T05:46:51;17.37;;;15.87;;
24259;SDS011;12384;48.112;18.418;2022-12-07T05:49:20;19.53;;;17.83;;
24259;SDS011;12384;48.112;18.418;2022-12-07T05:51:48;20.23;;;18.37;;
24259;SDS011;12384;48.112;18.418;2022-12-07T05:54:17;19.77;;;17.87;;
24259;SDS011;12384;48.112;18.418;2022-12-07T05:56:45;20.63;;;18.80;;
24259;SDS011;12384;48.112;18.418;2022-12-07T05:59:14;19.20;;;17.50;;
24259;SDS011;12384;48.112;18.418;2022-12-07T06:02:07;20.57;;;18.57;;
24259;SDS011;12384;48.112;18.418;2022-12-07T06:04:39;20.93;;;19.03;;
24259;SDS011;12384;48.112;18.418;2022-12-07T06:07:09;19.87;;;18.07;;
24259;SDS011;12384;48.112;18.418;2022-12-07T06:09:39;21.43;;;19.43;;
24259;SDS011;12384;48.112;18.418;2022-12-07T06:12:09;19.60;;;17.77;;
24259;SDS011;12384;48.112;18.418;2022-12-07T06:14:55;21.00;;;19.00;;
24259;SDS011;12384;48.112;18.418;2022-12-07T06:17:26;18.70;;;17.10;;
24259;SDS011;12384;48.112;18.418;2022-12-07T06:19:54;19.83;;;18.13;;
24259;SDS011;12384;48.112;18.418;2022-12-07T06:22:23;19.57;;;17.80;;
24259;SDS011;12384;48.112;18.418;2022-12-07T06:24:51;20.43;;;18.60;;
24259;SDS011;12384;48.112;18.418;2022-12-07T06:27:19;19.13;;;17.40;;
24259;SDS011;12384;48.112;18.418;2022-12-07T06:29:48;19.90;;;18.10;;
24259;SDS011;12384;48.112;18.418;2022-12-07T06:32:16;19.73;;;17.87;;
24259;SDS011;12384;48.112;18.418;2022-12-07T06:34:46;19.90;;;18.20;;
24259;SDS011;12384;48.112;18.418;2022-12-07T06:37:15;19.33;;;17.47;;
24259;SDS011;12384;48.112;18.418;2022-12-07T06:39:43;19.03;;;17.33;;
24259;SDS011;12384;48.112;18.418;2022-12-07T06:42:12;19.33;;;17.63;;
24259;SDS011;12384;48.112;18.418;2022-12-07T06:44:40;18.67;;;16.97;;
24259;SDS011;12384;48.112;18.418;2022-12-07T06:47:09;18.37;;;16.77;;
24259;SDS011;12384;48.112;18.418;2022-12-07T06:49:59;19.97;;;18.17;;
24259;SDS011;12384;48.112;18.418;2022-12-07T06:52:28;17.67;;;16.07;;
24259;SDS011;12384;48.112;18.418;2022-12-07T06:54:57;18.30;;;16.60;;
24259;SDS011;12384;48.112;18.418;2022-12-07T06:57:26;18.10;;;16.57;;
24259;SDS011;12384;48.112;18.418;2022-12-07T06:59:54;19.10;;;17.30;;
24259;SDS011;12384;48.112;18.418;2022-12-07T07:02:23;18.13;;;16.53;;
24259;SDS011;12384;48.112;18.418;2022-12-07T07:04:52;18.27;;;16.67;;
24259;SDS011;12384;48.112;18.418;2022-12-07T07:07:21;16.40;;;14.90;;
24259;SDS011;12384;48.112;18.418;2022-12-07T07:09:50;16.80;;;15.40;;
24259;SDS011;12384;48.112;18.418;2022-12-07T07:12:18;17.70;;;16.13;;
24259;SDS011;12384;48.112;18.418;2022-12-07T07:14:47;18.40;;;16.70;;
24259;SDS011;12384;48.112;18.418;2022-12-07T07:17:15;18.33;;;16.63;;
24259;SDS011;12384;48.112;18.418;2022-12-07T07:19:44;18.37;;;16.77;;
24259;SDS011;12384;48.112;18.418;2022-12-07T07:22:12;16.53;;;15.03;;
24259;SDS011;12384;48.112;18.418;2022-12-07T07:24:42;18.40;;;16.73;;
24259;SDS011;12384;48.112;18.418;2022-12-07T07:27:11;17.87;;;16.17;;
24259;SDS011;12384;48.112;18.418;2022-12-07T07:29:39;17.80;;;16.20;;
24259;SDS011;12384;48.112;18.418;2022-12-07T07:32:08;18.83;;;17.10;;
24259;SDS011;12384;48.112;18.418;2022-12-07T07:34:36;17.27;;;15.83;;
24259;SDS011;12384;48.112;18.418;2022-12-07T07:37:05;18.93;;;17.20;;
24259;SDS011;12384;48.112;18.418;2022-12-07T07:39:33;17.27;;;15.77;;
24259;SDS011;12384;48.112;18.418;2022-12-07T07:42:03;17.40;;;15.90;;
24259;SDS011;12384;48.112;18.418;2022-12-07T07:44:32;15.93;;;14.47;;
24259;SDS011;12384;48.112;18.418;2022-12-07T07:47:01;15.10;;;13.77;;
24259;SDS011;12384;48.112;18.418;2022-12-07T07:49:30;15.63;;;14.13;;
24259;SDS011;12384;48.112;18.418;2022-12-07T07:51:59;15.33;;;14.03;;
24259;SDS011;12384;48.112;18.418;2022-12-07T07:54:27;16.20;;;14.73;;
24259;SDS011;12384;48.112;18.418;2022-12-07T07:56:55;16.53;;;15.03;;
24259;SDS011;12384;48.112;18.418;2022-12-07T07:59:25;16.40;;;15.07;;
24259;SDS011;12384;48.112;18.418;2022-12-07T08:01:54;15.63;;;14.17;;
24259;SDS011;12384;48.112;18.418;2022-12-07T08:04:23;14.43;;;13.03;;
24259;SDS011;12384;48.112;18.418;2022-12-07T08:06:51;15.80;;;14.30;;
24259;SDS011;12384;48.112;18.418;2022-12-07T08:09:20;15.60;;;14.20;;
24259;SDS011;12384;48.112;18.418;2022-12-07T08:11:48;16.97;;;15.47;;
24259;SDS011;12384;48.112;18.418;2022-12-07T08:14:17;15.27;;;13.93;;
24259;SDS011;12384;48.112;18.418;2022-12-07T08:16:47;16.57;;;14.97;;
24259;SDS011;12384;48.112;18.418;2022-12-07T08:19:15;14.90;;;13.60;;
24259;SDS011;12384;48.112;18.418;2022-12-07T08:21:44;16.20;;;14.63;;
24259;SDS011;12384;48.112;18.418;2022-12-07T08:24:12;15.13;;;13.63;;
24259;SDS011;12384;48.112;18.418;2022-12-07T08:26:41;15.50;;;14.10;;
24259;SDS011;12384;48.112;18.418;2022-12-07T08:29:10;16.10;;;14.60;;
24259;SDS011;12384;48.112;18.418;2022-12-07T08:31:38;16.03;;;14.63;;
24259;SDS011;12384;48.112;18.418;2022-12-07T08:34:09;15.80;;;14.40;;
24259;SDS011;12384;48.112;18.418;2022-12-07T08:36:38;16.60;;;15.10;;
24259;SDS011;12384;48.112;18.418;2022-12-07T08:39:07;18.43;;;16.73;;
24259;SDS011;12384;48.112;18.418;2022-12-07T08:41:55;18.57;;;16.47;;
24259;SDS011;12384;48.112;18.418;2022-12-07T08:44:24;17.50;;;15.90;;
24259;SDS011;12384;48.112;18.418;2022-12-07T08:46:53;18.30;;;16.53;;
24259;SDS011;12384;48.112;18.418;2022-12-07T08:49:27;19.23;;;17.33;;
24259;SDS011;12384;48.112;18.418;2022-12-07T08:52:00;17.90;;;16.20;;
24259;SDS011;12384;48.112;18.418;2022-12-07T08:54:32;17.77;;;15.97;;
24259;SDS011;12384;48.112;18.418;2022-12-07T08:57:03;18.53;;;16.57;;
24259;SDS011;12384;48.112;18.418;2022-12-07T08:59:33;20.00;;;18.00;;
24259;SDS011;12384;48.112;18.418;2022-12-07T09:02:04;18.37;;;16.57;;
24259;SDS011;12384;48.112;18.418;2022-12-07T09:04:34;19.97;;;18.03;;
24259;SDS011;12384;48.112;18.418;2022-12-07T09:07:03;19.50;;;17.70;;
24259;SDS011;12384;48.112;18.418;2022-12-07T09:09:32;18.60;;;16.80;;
24259;SDS011;12384;48.112;18.418;2022-12-07T09:12:00;19.53;;;17.63;;
24259;SDS011;12384;48.112;18.418;2022-12-07T09:14:29;19.43;;;17.63;;
24259;SDS011;12384;48.112;18.418;2022-12-07T09:17:04;17.73;;;16.13;;
24259;SDS011;12384;48.112;18.418;2022-12-07T09:19:38;18.90;;;17.00;;
24259;SDS011;12384;48.112;18.418;2022-12-07T09:22:09;18.03;;;16.33;;
24259;SDS011;12384;48.112;18.418;2022-12-07T09:24:37;18.67;;;16.97;;
24259;SDS011;12384;48.112;18.418;2022-12-07T09:27:06;17.23;;;15.63;;
24259;SDS011;12384;48.112;18.418;2022-12-07T09:29:34;18.37;;;16.47;;
24259;SDS011;12384;48.112;18.418;2022-12-07T09:32:03;17.93;;;16.23;;
24259;SDS011;12384;48.112;18.418;2022-12-07T09:34:38;19.37;;;17.57;;
24259;SDS011;12384;48.112;18.418;2022-12-07T09:37:07;18.60;;;16.70;;
24259;SDS011;12384;48.112;18.418;2022-12-07T09:39:38;19.40;;;17.40;;
24259;SDS011;12384;48.112;18.418;2022-12-07T09:42:21;20.93;;;18.83;;
24259;SDS011;12384;48.112;18.418;2022-12-07T09:44:56;21.27;;;19.27;;
24259;SDS011;12384;48.112;18.418;2022-12-07T09:47:27;19.63;;;17.73;;
24259;SDS011;12384;48.112;18.418;2022-12-07T09:50:00;21.80;;;19.60;;
24259;SDS011;12384;48.112;18.418;2022-12-07T09:52:33;20.23;;;18.27;;
24259;SDS011;12384;48.112;18.418;2022-12-07T09:55:09;21.60;;;19.43;;
24259;SDS011;12384;48.112;18.418;2022-12-07T09:57:40;20.37;;;18.47;;
24259;SDS011;12384;48.112;18.418;2022-12-07T10:00:12;21.60;;;19.50;;
24259;SDS011;12384;48.112;18.418;2022-12-07T10:02:43;20.57;;;18.57;;
24259;SDS011;12384;48.112;18.418;2022-12-07T10:05:16;20.53;;;18.53;;
24259;SDS011;12384;48.112;18.418;2022-12-07T10:07:50;21.67;;;19.57;;
24259;SDS011;12384;48.112;18.418;2022-12-07T10:10:23;21.00;;;19.00;;
24259;SDS011;12384;48.112;18.418;2022-12-07T10:12:58;22.50;;;20.30;;
24259;SDS011;12384;48.112;18.418;2022-12-07T10:18:33;21.87;;;19.67;;
24259;SDS011;12384;48.112;18.418;2022-12-07T10:21:09;19.77;;;17.87;;
24259;SDS011;12384;48.112;18.418;2022-12-07T10:23:41;19.13;;;17.13;;
24259;SDS011;12384;48.112;18.418;2022-12-07T10:26:26;17.97;;;16.27;;
24259;SDS011;12384;48.112;18.418;2022-12-07T10:28:58;17.43;;;15.83;;
24259;SDS011;12384;48.112;18.418;2022-12-07T10:31:30;18.83;;;16.97;;
24259;SDS011;12384;48.112;18.418;2022-12-07T10:34:12;18.43;;;16.60;;
24259;SDS011;12384;48.112;18.418;2022-12-07T10:36:50;18.53;;;16.77;;
24259;SDS011;12384;48.112;18.418;2022-12-07T10:39:21;18.33;;;16.50;;
24259;SDS011;12384;48.112;18.418;2022-12-07T10:41:53;18.07;;;16.33;;
24259;SDS011;12384;48.112;18.418;2022-12-07T10:44:24;17.50;;;15.80;;
24259;SDS011;12384;48.112;18.418;2022-12-07T10:47:07;18.40;;;16.60;;
24259;SDS011;12384;48.112;18.418;2022-12-07T10:49:58;17.80;;;16.10;;
24259;SDS011;12384;48.112;18.418;2022-12-07T10:53:19;16.90;;;15.27;;
24259;SDS011;12384;48.112;18.418;2022-12-07T10:56:19;17.33;;;15.63;;
24259;SDS011;12384;48.112;18.418;2022-12-07T10:59:24;18.60;;;16.90;;
24259;SDS011;12384;48.112;18.418;2022-12-07T11:02:35;16.83;;;15.33;;
24259;SDS011;12384;48.112;18.418;2022-12-07T11:05:23;18.13;;;16.43;;
24259;SDS011;12384;48.112;18.418;2022-12-07T11:08:03;17.57;;;15.97;;
24259;SDS011;12384;48.112;18.418;2022-12-07T11:10:43;19.37;;;17.50;;
24259;SDS011;12384;48.112;18.418;2022-12-07T11:13:22;17.97;;;16.37;;
24259;SDS011;12384;48.112;18.418;2022-12-07T11:16:21;17.50;;;15.83;;
24259;SDS011;12384;48.112;18.418;2022-12-07T11:19:05;17.27;;;15.60;;
24259;SDS011;12384;48.112;18.418;2022-12-07T11:22:09;15.63;;;14.13;;
24259;SDS011;12384;48.112;18.418;2022-12-07T11:24:46;16.17;;;14.57;;
24259;SDS011;12384;48.112;18.418;2022-12-07T11:27:40;15.27;;;13.73;;
24259;SDS011;12384;48.112;18.418;2022-12-07T11:30:22;15.50;;;14.00;;
24259;SDS011;12384;48.112;18.418;2022-12-07T11:33:05;16.23;;;14.73;;
24259;SDS011;12384;48.112;18.418;2022-12-07T11:35:57;16.50;;;14.90;;
24259;SDS011;12384;48.112;18.418;2022-12-07T11:38:35;15.70;;;14.33;;
24259;SDS011;12384;48.112;18.418;2022-12-07T11:41:14;14.23;;;13.00;;
24259;SDS011;12384;48.112;18.418;2022-12-07T11:43:56;14.80;;;13.50;;
24259;SDS011;12384;48.112;18.418;2022-12-07T11:46:33;13.97;;;12.87;;
24259;SDS011;12384;48.112;18.418;2022-12-07T11:49:13;14.83;;;13.53;;
24259;SDS011;12384;48.112;18.418;2022-12-07T11:51:49;14.90;;;13.70;;
24259;SDS011;12384;48.112;18.418;2022-12-07T11:54:29;15.20;;;13.90;;
24259;SDS011;12384;48.112;18.418;2022-12-07T11:57:07;15.77;;;14.47;;
24259;SDS011;12384;48.112;18.418;2022-12-07T11:59:47;14.73;;;13.57;;
24259;SDS011;12384;48.112;18.418;2022-12-07T12:05:13;14.97;;;13.77;;
24259;SDS011;12384;48.112;18.418;2022-12-07T12:11:10;15.27;;;13.97;;
24259;SDS011;12384;48.112;18.418;2022-12-07T12:14:16;14.80;;;13.60;;
24259;SDS011;12384;48.112;18.418;2022-12-07T12:20:18;16.53;;;15.13;;
24259;SDS011;12384;48.112;18.418;2022-12-07T12:22:52;16.37;;;15.07;;
24259;SDS011;12384;48.112;18.418;2022-12-07T12:25:27;16.33;;;14.97;;
24259;SDS011;12384;48.112;18.418;2022-12-07T12:27:58;17.33;;;15.90;;
24259;SDS011;12384;48.112;18.418;2022-12-07T12:30:34;17.53;;;16.07;;
24259;SDS011;12384;48.112;18.418;2022-12-07T12:33:14;16.80;;;15.40;;
24259;SDS011;12384;48.112;18.418;2022-12-07T12:38:48;16.07;;;14.37;;
24259;SDS011;12384;48.112;18.418;2022-12-07T12:41:51;16.70;;;15.30;;
24259;SDS011;12384;48.112;18.418;2022-12-07T12:47:57;16.60;;;15.10;;
24259;SDS011;12384;48.112;18.418;2022-12-07T12:50:40;16.97;;;15.47;;
24259;SDS011;12384;48.112;18.418;2022-12-07T12:56:13;16.50;;;15.10;;
24259;SDS011;12384;48.112;18.418;2022-12-07T13:05:16;17.57;;;15.97;;
24259;SDS011;12384;48.112;18.418;2022-12-07T13:07:56;17.00;;;15.40;;
24259;SDS011;12384;48.112;18.418;2022-12-07T13:10:35;17.03;;;15.53;;
24259;SDS011;12384;48.112;18.418;2022-12-07T13:13:30;17.17;;;15.57;;
24259;SDS011;12384;48.112;18.418;2022-12-07T13:23:10;16.00;;;14.70;;
24259;SDS011;12384;48.112;18.418;2022-12-07T13:28:48;16.30;;;14.80;;
24259;SDS011;12384;48.112;18.418;2022-12-07T13:31:40;15.13;;;14.03;;
24259;SDS011;12384;48.112;18.418;2022-12-07T13:34:29;15.73;;;14.53;;
24259;SDS011;12384;48.112;18.418;2022-12-07T13:37:04;16.77;;;15.17;;
24259;SDS011;12384;48.112;18.418;2022-12-07T13:39:46;14.40;;;13.30;;
24259;SDS011;12384;48.112;18.418;2022-12-07T13:42:40;14.87;;;13.63;;
24259;SDS011;12384;48.112;18.418;2022-12-07T13:45:21;14.63;;;13.23;;
24259;SDS011;12384;48.112;18.418;2022-12-07T13:48:43;14.57;;;13.27;;
24259;SDS011;12384;48.112;18.418;2022-12-07T13:51:05;13.67;;;12.47;;
24259;SDS011;12384;48.112;18.418;2022-12-07T13:53:48;12.50;;;11.50;;
24259;SDS011;12384;48.112;18.418;2022-12-07T13:56:34;12.27;;;11.27;;
24259;SDS011;12384;48.112;18.418;2022-12-07T13:59:09;11.97;;;11.07;;
24259;SDS011;12384;48.112;18.418;2022-12-07T14:01:54;12.10;;;11.10;;
24259;SDS011;12384;48.112;18.418;2022-12-07T14:04:48;11.53;;;10.70;;
24259;SDS011;12384;48.112;18.418;2022-12-07T14:07:23;12.17;;;11.17;;
24259;SDS011;12384;48.112;18.418;2022-12-07T14:10:22;11.73;;;10.83;;
24259;SDS011;12384;48.112;18.418;2022-12-07T14:12:55;12.87;;;11.87;;
24259;SDS011;12384;48.112;18.418;2022-12-07T14:15:28;12.20;;;11.23;;
24259;SDS011;12384;48.112;18.418;2022-12-07T14:18:01;12.73;;;11.73;;
24259;SDS011;12384;48.112;18.418;2022-12-07T14:20:33;11.37;;;10.50;;
24259;SDS011;12384;48.112;18.418;2022-12-07T14:26:08;10.90;;;10.10;;
24259;SDS011;12384;48.112;18.418;2022-12-07T14:28:46;11.70;;;10.90;;
24259;SDS011;12384;48.112;18.418;2022-12-07T14:31:21;12.23;;;11.33;;
24259;SDS011;12384;48.112;18.418;2022-12-07T14:33:58;12.23;;;11.23;;
24259;SDS011;12384;48.112;18.418;2022-12-07T14:36:42;12.10;;;11.13;;
24259;SDS011;12384;48.112;18.418;2022-12-07T14:39:15;11.80;;;11.00;;
24259;SDS011;12384;48.112;18.418;2022-12-07T14:41:51;11.40;;;10.53;;
24259;SDS011;12384;48.112;18.418;2022-12-07T14:44:25;11.97;;;11.07;;
24259;SDS011;12384;48.112;18.418;2022-12-07T14:47:17;10.93;;;10.13;;
24259;SDS011;12384;48.112;18.418;2022-12-07T14:50:10;12.13;;;11.03;;
24259;SDS011;12384;48.112;18.418;2022-12-07T14:52:41;12.47;;;11.57;;
24259;SDS011;12384;48.112;18.418;2022-12-07T14:55:37;12.57;;;11.67;;
24259;SDS011;12384;48.112;18.418;2022-12-07T14:58:20;12.77;;;11.87;;
24259;SDS011;12384;48.112;18.418;2022-12-07T15:00:59;13.10;;;12.20;;
24259;SDS011;12384;48.112;18.418;2022-12-07T15:03:30;13.37;;;12.37;;
24259;SDS011;12384;48.112;18.418;2022-12-07T15:06:03;12.80;;;11.70;;
24259;SDS011;12384;48.112;18.418;2022-12-07T15:08:52;13.30;;;12.30;;
24259;SDS011;12384;48.112;18.418;2022-12-07T15:11:22;13.30;;;12.20;;
24259;SDS011;12384;48.112;18.418;2022-12-07T15:13:50;13.60;;;12.43;;
24259;SDS011;12384;48.112;18.418;2022-12-07T15:17:01;13.80;;;12.70;;
24259;SDS011;12384;48.112;18.418;2022-12-07T15:19:59;12.63;;;11.63;;
24259;SDS011;12384;48.112;18.418;2022-12-07T15:22:57;12.47;;;11.47;;
24259;SDS011;12384;48.112;18.418;2022-12-07T15:25:27;14.10;;;13.00;;
24259;SDS011;12384;48.112;18.418;2022-12-07T15:27:57;11.57;;;10.67;;
24259;SDS011;12384;48.112;18.418;2022-12-07T15:30:27;12.53;;;11.57;;
24259;SDS011;12384;48.112;18.418;2022-12-07T15:36:01;12.77;;;11.77;;
24259;SDS011;12384;48.112;18.418;2022-12-07T15:38:56;13.67;;;12.53;;
24259;SDS011;12384;48.112;18.418;2022-12-07T15:41:49;13.90;;;12.60;;
24259;SDS011;12384;48.112;18.418;2022-12-07T15:44:23;13.70;;;12.50;;